Caseros, Argentina
Current Conditions -  °F | °C
As of 8:00 PM on Saturday 25 Oct 2014 (Local Time) from SABE Reporting Station
Clear Clear  
Wind Chill: 75°   Ceiling: Unl
Heat Index: 75°   Visibility: 6mi
Dew Point: 68°   Wind: 12mph
Humidity: 78%   Direction: 90°E
Pressure: 29.85"   Gusts: NA
Location:  34.6°S, 58.55°W
Report Text: SABE 252300Z 09010KT CAVOK 24/20 Q1011
Loading
Personal Weather Stations






























Interactive Weather Map New forecast layout! Learn more

10-Day Weather Forecast

Advertisements
Track Severe Weather on mobile